sensor_id;sensor_type;location;lat;lon;timestamp;pressure;altitude;pressure_sealevel;temperature;humidity
10852;BME280;5479;52.046;6.314;2023-04-28T00:01:23;101338.00;;;9.63;65.75
10852;BME280;5479;52.046;6.314;2023-04-28T00:03:53;101334.78;;;9.57;66.51
10852;BME280;5479;52.046;6.314;2023-04-28T00:06:22;101322.72;;;9.51;67.50
10852;BME280;5479;52.046;6.314;2023-04-28T00:08:50;101316.78;;;9.46;68.25
10852;BME280;5479;52.046;6.314;2023-04-28T00:11:17;101313.69;;;9.37;69.28
10852;BME280;5479;52.046;6.314;2023-04-28T00:13:45;101310.69;;;9.44;67.15
10852;BME280;5479;52.046;6.314;2023-04-28T00:16:13;101313.34;;;9.44;67.11
10852;BME280;5479;52.046;6.314;2023-04-28T00:18:41;101304.75;;;9.39;67.27
10852;BME280;5479;52.046;6.314;2023-04-28T00:21:11;101305.63;;;9.40;68.19
10852;BME280;5479;52.046;6.314;2023-04-28T00:23:39;101292.34;;;9.41;67.78
10852;BME280;5479;52.046;6.314;2023-04-28T00:26:07;101306.75;;;9.34;68.48
10852;BME280;5479;52.046;6.314;2023-04-28T00:28:35;101309.34;;;9.36;67.35
10852;BME280;5479;52.046;6.314;2023-04-28T00:31:09;101302.13;;;9.39;68.34
10852;BME280;5479;52.046;6.314;2023-04-28T00:33:38;101293.41;;;9.37;67.54
10852;BME280;5479;52.046;6.314;2023-04-28T00:36:07;101290.00;;;9.35;68.20
10852;BME280;5479;52.046;6.314;2023-04-28T00:38:37;101286.91;;;9.44;67.94
10852;BME280;5479;52.046;6.314;2023-04-28T00:41:05;101281.06;;;9.38;69.04
10852;BME280;5479;52.046;6.314;2023-04-28T00:43:43;101269.75;;;9.34;69.13
10852;BME280;5479;52.046;6.314;2023-04-28T00:46:19;101267.56;;;9.25;70.35
10852;BME280;5479;52.046;6.314;2023-04-28T00:48:48;101268.63;;;9.21;70.65
10852;BME280;5479;52.046;6.314;2023-04-28T00:51:16;101263.34;;;9.21;70.24
10852;BME280;5479;52.046;6.314;2023-04-28T00:53:45;101268.97;;;9.14;71.19
10852;BME280;5479;52.046;6.314;2023-04-28T00:56:13;101271.41;;;9.18;71.19
10852;BME280;5479;52.046;6.314;2023-04-28T00:58:42;101261.19;;;9.29;70.63
10852;BME280;5479;52.046;6.314;2023-04-28T01:01:10;101248.75;;;9.31;69.81
10852;BME280;5479;52.046;6.314;2023-04-28T01:03:39;101243.91;;;9.22;70.54
10852;BME280;5479;52.046;6.314;2023-04-28T01:06:08;101238.78;;;9.19;70.96
10852;BME280;5479;52.046;6.314;2023-04-28T01:08:37;101232.84;;;9.14;71.72
10852;BME280;5479;52.046;6.314;2023-04-28T01:11:06;101245.78;;;9.20;70.47
10852;BME280;5479;52.046;6.314;2023-04-28T01:13:35;101240.00;;;9.12;70.90
10852;BME280;5479;52.046;6.314;2023-04-28T01:16:05;101238.31;;;9.09;71.81
10852;BME280;5479;52.046;6.314;2023-04-28T01:18:34;101227.47;;;9.16;72.88
10852;BME280;5479;52.046;6.314;2023-04-28T01:21:02;101221.56;;;9.10;72.87
10852;BME280;5479;52.046;6.314;2023-04-28T01:23:31;101225.19;;;9.08;73.08
10852;BME280;5479;52.046;6.314;2023-04-28T01:26:00;101233.91;;;9.10;72.90
10852;BME280;5479;52.046;6.314;2023-04-28T01:28:28;101226.69;;;8.95;75.64
10852;BME280;5479;52.046;6.314;2023-04-28T01:30:59;101218.19;;;9.07;74.63
10852;BME280;5479;52.046;6.314;2023-04-28T01:33:30;101223.78;;;9.01;74.93
10852;BME280;5479;52.046;6.314;2023-04-28T01:35:58;101219.63;;;9.14;75.14
10852;BME280;5479;52.046;6.314;2023-04-28T01:38:26;101216.50;;;9.06;75.21
10852;BME280;5479;52.046;6.314;2023-04-28T01:40:53;101218.91;;;9.10;74.32
10852;BME280;5479;52.046;6.314;2023-04-28T01:43:23;101214.34;;;9.14;74.70
10852;BME280;5479;52.046;6.314;2023-04-28T01:45:51;101209.84;;;9.16;76.02
10852;BME280;5479;52.046;6.314;2023-04-28T01:48:20;101202.66;;;9.20;74.63
10852;BME280;5479;52.046;6.314;2023-04-28T01:50:48;101210.72;;;9.17;74.26
10852;BME280;5479;52.046;6.314;2023-04-28T01:53:16;101211.22;;;9.06;76.25
10852;BME280;5479;52.046;6.314;2023-04-28T01:55:46;101213.72;;;9.09;78.26
10852;BME280;5479;52.046;6.314;2023-04-28T01:58:14;101215.75;;;8.84;86.54
10852;BME280;5479;52.046;6.314;2023-04-28T02:00:43;101217.88;;;8.76;93.38
10852;BME280;5479;52.046;6.314;2023-04-28T02:03:11;101208.59;;;8.67;96.94
10852;BME280;5479;52.046;6.314;2023-04-28T02:05:39;101213.13;;;8.45;100.00
10852;BME280;5479;52.046;6.314;2023-04-28T02:08:07;101213.91;;;8.27;100.00
10852;BME280;5479;52.046;6.314;2023-04-28T02:10:35;101208.56;;;8.28;100.00
10852;BME280;5479;52.046;6.314;2023-04-28T02:13:03;101210.56;;;8.22;100.00
10852;BME280;5479;52.046;6.314;2023-04-28T02:15:30;101207.88;;;8.23;100.00
10852;BME280;5479;52.046;6.314;2023-04-28T02:18:00;101211.38;;;8.24;100.00
10852;BME280;5479;52.046;6.314;2023-04-28T02:20:28;101203.41;;;8.25;100.00
10852;BME280;5479;52.046;6.314;2023-04-28T02:22:56;101200.25;;;8.37;100.00
10852;BME280;5479;52.046;6.314;2023-04-28T02:25:24;101193.84;;;8.43;100.00
10852;BME280;5479;52.046;6.314;2023-04-28T02:27:52;101193.00;;;8.42;100.00
10852;BME280;5479;52.046;6.314;2023-04-28T02:30:20;101186.38;;;8.53;100.00
10852;BME280;5479;52.046;6.314;2023-04-28T02:32:48;101182.03;;;8.52;100.00
10852;BME280;5479;52.046;6.314;2023-04-28T02:35:18;101187.44;;;8.48;100.00
10852;BME280;5479;52.046;6.314;2023-04-28T02:37:46;101183.53;;;8.57;100.00
10852;BME280;5479;52.046;6.314;2023-04-28T02:40:14;101183.31;;;8.62;100.00
10852;BME280;5479;52.046;6.314;2023-04-28T02:42:42;101186.75;;;8.45;100.00
10852;BME280;5479;52.046;6.314;2023-04-28T02:45:10;101182.72;;;8.36;100.00
10852;BME280;5479;52.046;6.314;2023-04-28T02:47:38;101180.03;;;8.57;100.00
10852;BME280;5479;52.046;6.314;2023-04-28T02:50:07;101173.69;;;8.61;100.00
10852;BME280;5479;52.046;6.314;2023-04-28T02:52:37;101170.63;;;8.70;100.00
10852;BME280;5479;52.046;6.314;2023-04-28T02:55:05;101162.53;;;8.74;100.00
10852;BME280;5479;52.046;6.314;2023-04-28T02:57:33;101163.41;;;8.55;100.00
10852;BME280;5479;52.046;6.314;2023-04-28T03:00:01;101158.66;;;8.63;100.00
10852;BME280;5479;52.046;6.314;2023-04-28T03:02:30;101157.09;;;8.77;100.00
10852;BME280;5479;52.046;6.314;2023-04-28T03:04:58;101156.91;;;8.62;100.00
10852;BME280;5479;52.046;6.314;2023-04-28T03:07:26;101153.06;;;8.50;100.00
10852;BME280;5479;52.046;6.314;2023-04-28T03:09:56;101147.06;;;8.46;100.00
10852;BME280;5479;52.046;6.314;2023-04-28T03:12:23;101142.50;;;8.50;100.00
10852;BME280;5479;52.046;6.314;2023-04-28T03:14:51;101142.88;;;8.42;100.00
10852;BME280;5479;52.046;6.314;2023-04-28T03:17:19;101138.38;;;8.44;100.00
10852;BME280;5479;52.046;6.314;2023-04-28T03:19:47;101123.97;;;8.52;100.00
10852;BME280;5479;52.046;6.314;2023-04-28T03:22:16;101110.25;;;8.62;100.00
10852;BME280;5479;52.046;6.314;2023-04-28T03:24:44;101101.66;;;8.59;100.00
10852;BME280;5479;52.046;6.314;2023-04-28T03:27:13;101096.56;;;8.54;100.00
10852;BME280;5479;52.046;6.314;2023-04-28T03:29:41;101101.97;;;8.51;100.00
10852;BME280;5479;52.046;6.314;2023-04-28T03:32:09;101103.09;;;8.45;100.00
10852;BME280;5479;52.046;6.314;2023-04-28T03:34:37;101095.16;;;8.66;100.00
10852;BME280;5479;52.046;6.314;2023-04-28T03:37:05;101085.72;;;8.79;100.00
10852;BME280;5479;52.046;6.314;2023-04-28T03:39:33;101084.31;;;8.72;100.00
10852;BME280;5479;52.046;6.314;2023-04-28T03:42:01;101082.72;;;8.68;100.00
10852;BME280;5479;52.046;6.314;2023-04-28T03:44:30;101077.72;;;8.62;100.00
10852;BME280;5479;52.046;6.314;2023-04-28T03:46:58;101085.38;;;8.68;100.00
10852;BME280;5479;52.046;6.314;2023-04-28T03:49:27;101078.72;;;8.78;100.00
10852;BME280;5479;52.046;6.314;2023-04-28T03:51:55;101088.72;;;8.90;100.00
10852;BME280;5479;52.046;6.314;2023-04-28T03:54:23;101078.69;;;8.96;100.00
10852;BME280;5479;52.046;6.314;2023-04-28T03:56:51;101089.97;;;9.00;100.00
10852;BME280;5479;52.046;6.314;2023-04-28T03:59:19;101082.00;;;9.01;100.00
10852;BME280;5479;52.046;6.314;2023-04-28T04:01:49;101085.56;;;9.00;100.00
10852;BME280;5479;52.046;6.314;2023-04-28T04:04:17;101085.97;;;8.91;100.00
10852;BME280;5479;52.046;6.314;2023-04-28T04:06:46;101078.56;;;8.81;100.00
10852;BME280;5479;52.046;6.314;2023-04-28T04:09:14;101082.81;;;8.85;100.00
10852;BME280;5479;52.046;6.314;2023-04-28T04:11:42;101080.44;;;8.79;100.00
10852;BME280;5479;52.046;6.314;2023-04-28T04:14:10;101084.44;;;8.69;100.00
10852;BME280;5479;52.046;6.314;2023-04-28T04:16:38;101081.16;;;8.64;100.00
10852;BME280;5479;52.046;6.314;2023-04-28T04:19:08;101069.53;;;8.68;100.00
10852;BME280;5479;52.046;6.314;2023-04-28T04:21:36;101074.94;;;8.65;100.00
10852;BME280;5479;52.046;6.314;2023-04-28T04:24:04;101070.53;;;8.65;100.00
10852;BME280;5479;52.046;6.314;2023-04-28T04:26:32;101069.47;;;8.69;100.00
10852;BME280;5479;52.046;6.314;2023-04-28T04:29:00;101067.88;;;8.65;100.00
10852;BME280;5479;52.046;6.314;2023-04-28T04:31:28;101057.28;;;8.67;100.00
10852;BME280;5479;52.046;6.314;2023-04-28T04:33:56;101063.47;;;8.66;100.00
10852;BME280;5479;52.046;6.314;2023-04-28T04:36:27;101063.19;;;8.72;100.00
10852;BME280;5479;52.046;6.314;2023-04-28T04:38:57;101050.66;;;8.75;100.00
10852;BME280;5479;52.046;6.314;2023-04-28T04:41:25;101046.22;;;8.59;100.00
10852;BME280;5479;52.046;6.314;2023-04-28T04:43:53;101047.53;;;8.67;100.00
10852;BME280;5479;52.046;6.314;2023-04-28T04:46:21;101041.19;;;8.71;100.00
10852;BME280;5479;52.046;6.314;2023-04-28T04:48:49;101042.50;;;8.63;100.00
10852;BME280;5479;52.046;6.314;2023-04-28T04:51:18;101038.69;;;8.68;100.00
10852;BME280;5479;52.046;6.314;2023-04-28T04:53:48;101030.06;;;8.65;100.00
10852;BME280;5479;52.046;6.314;2023-04-28T04:56:16;101035.34;;;8.65;100.00
10852;BME280;5479;52.046;6.314;2023-04-28T04:58:44;101036.78;;;8.72;100.00
10852;BME280;5479;52.046;6.314;2023-04-28T05:01:13;101022.25;;;8.80;100.00
10852;BME280;5479;52.046;6.314;2023-04-28T05:03:41;101024.91;;;8.80;100.00
10852;BME280;5479;52.046;6.314;2023-04-28T05:06:10;101026.25;;;8.89;100.00
10852;BME280;5479;52.046;6.314;2023-04-28T05:08:38;101030.75;;;8.87;100.00
10852;BME280;5479;52.046;6.314;2023-04-28T05:11:07;101034.69;;;8.78;100.00
10852;BME280;5479;52.046;6.314;2023-04-28T05:13:35;101025.75;;;8.81;100.00
10852;BME280;5479;52.046;6.314;2023-04-28T05:16:04;101026.34;;;8.87;100.00
10852;BME280;5479;52.046;6.314;2023-04-28T05:18:32;101024.47;;;8.89;100.00
10852;BME280;5479;52.046;6.314;2023-04-28T05:21:00;101025.63;;;8.84;100.00
10852;BME280;5479;52.046;6.314;2023-04-28T05:23:28;101016.59;;;8.71;100.00
10852;BME280;5479;52.046;6.314;2023-04-28T05:25:55;101011.94;;;8.76;100.00
10852;BME280;5479;52.046;6.314;2023-04-28T05:28:25;101021.63;;;8.75;100.00
10852;BME280;5479;52.046;6.314;2023-04-28T05:30:53;101012.56;;;8.81;100.00
10852;BME280;5479;52.046;6.314;2023-04-28T05:33:21;101006.09;;;8.69;100.00
10852;BME280;5479;52.046;6.314;2023-04-28T05:35:49;101006.03;;;8.71;100.00
10852;BME280;5479;52.046;6.314;2023-04-28T05:38:20;100996.22;;;8.73;100.00
10852;BME280;5479;52.046;6.314;2023-04-28T05:40:48;100992.69;;;8.74;100.00
10852;BME280;5479;52.046;6.314;2023-04-28T05:43:16;100983.31;;;8.85;100.00
10852;BME280;5479;52.046;6.314;2023-04-28T05:45:45;100969.63;;;8.94;100.00
10852;BME280;5479;52.046;6.314;2023-04-28T05:48:13;100967.06;;;9.10;100.00
10852;BME280;5479;52.046;6.314;2023-04-28T05:50:41;100982.47;;;9.19;100.00
10852;BME280;5479;52.046;6.314;2023-04-28T05:53:09;100981.38;;;9.23;100.00
10852;BME280;5479;52.046;6.314;2023-04-28T05:55:37;100983.09;;;9.24;100.00
10852;BME280;5479;52.046;6.314;2023-04-28T05:58:05;100990.94;;;9.26;100.00
10852;BME280;5479;52.046;6.314;2023-04-28T06:00:33;101004.84;;;9.29;100.00
10852;BME280;5479;52.046;6.314;2023-04-28T06:03:03;101003.06;;;9.30;100.00
10852;BME280;5479;52.046;6.314;2023-04-28T06:05:32;101009.22;;;9.30;100.00
10852;BME280;5479;52.046;6.314;2023-04-28T06:08:00;100999.03;;;9.23;100.00
10852;BME280;5479;52.046;6.314;2023-04-28T06:10:29;101001.69;;;9.23;100.00
10852;BME280;5479;52.046;6.314;2023-04-28T06:12:57;100997.22;;;9.23;100.00
10852;BME280;5479;52.046;6.314;2023-04-28T06:15:25;100993.34;;;9.30;100.00
10852;BME280;5479;52.046;6.314;2023-04-28T06:17:53;100994.59;;;9.40;100.00
10852;BME280;5479;52.046;6.314;2023-04-28T06:20:22;100998.00;;;9.42;100.00
10852;BME280;5479;52.046;6.314;2023-04-28T06:22:51;100998.16;;;9.39;100.00
10852;BME280;5479;52.046;6.314;2023-04-28T06:25:18;101006.56;;;9.47;100.00
10852;BME280;5479;52.046;6.314;2023-04-28T06:27:47;101001.03;;;9.52;100.00
10852;BME280;5479;52.046;6.314;2023-04-28T06:30:16;101006.44;;;9.66;100.00
10852;BME280;5479;52.046;6.314;2023-04-28T06:32:45;100998.53;;;9.66;100.00
10852;BME280;5479;52.046;6.314;2023-04-28T06:35:14;100994.03;;;9.68;100.00
10852;BME280;5479;52.046;6.314;2023-04-28T06:37:44;100997.00;;;9.62;100.00
10852;BME280;5479;52.046;6.314;2023-04-28T06:40:18;101003.34;;;9.75;100.00
10852;BME280;5479;52.046;6.314;2023-04-28T06:42:50;101010.41;;;9.75;100.00
10852;BME280;5479;52.046;6.314;2023-04-28T06:45:19;101003.91;;;9.64;100.00
10852;BME280;5479;52.046;6.314;2023-04-28T06:47:47;100993.63;;;9.58;100.00
10852;BME280;5479;52.046;6.314;2023-04-28T06:50:15;100996.47;;;9.38;100.00
10852;BME280;5479;52.046;6.314;2023-04-28T06:52:44;100990.63;;;9.32;100.00
10852;BME280;5479;52.046;6.314;2023-04-28T06:55:15;100989.28;;;9.23;100.00
10852;BME280;5479;52.046;6.314;2023-04-28T06:57:43;100989.16;;;9.26;100.00
10852;BME280;5479;52.046;6.314;2023-04-28T07:00:12;100984.97;;;9.22;100.00
10852;BME280;5479;52.046;6.314;2023-04-28T07:02:40;100992.78;;;9.24;100.00
10852;BME280;5479;52.046;6.314;2023-04-28T07:05:09;100990.06;;;9.42;100.00
10852;BME280;5479;52.046;6.314;2023-04-28T07:07:37;100986.00;;;9.52;100.00
10852;BME280;5479;52.046;6.314;2023-04-28T07:10:07;100981.38;;;9.57;100.00
10852;BME280;5479;52.046;6.314;2023-04-28T07:12:36;100975.97;;;9.76;100.00
10852;BME280;5479;52.046;6.314;2023-04-28T07:15:05;100977.66;;;9.77;100.00
10852;BME280;5479;52.046;6.314;2023-04-28T07:17:33;100985.59;;;9.77;100.00
10852;BME280;5479;52.046;6.314;2023-04-28T07:20:01;100985.84;;;9.73;100.00
10852;BME280;5479;52.046;6.314;2023-04-28T07:22:29;100989.25;;;9.75;100.00
10852;BME280;5479;52.046;6.314;2023-04-28T07:24:57;100985.59;;;9.77;100.00
10852;BME280;5479;52.046;6.314;2023-04-28T07:27:26;100996.31;;;9.91;100.00
10852;BME280;5479;52.046;6.314;2023-04-28T07:29:54;100991.47;;;9.99;100.00
10852;BME280;5479;52.046;6.314;2023-04-28T07:32:22;101000.75;;;10.06;100.00
10852;BME280;5479;52.046;6.314;2023-04-28T07:34:50;100991.75;;;10.10;100.00
10852;BME280;5479;52.046;6.314;2023-04-28T07:37:18;100998.25;;;10.20;100.00
10852;BME280;5479;52.046;6.314;2023-04-28T07:39:46;100987.03;;;10.48;100.00
10852;BME280;5479;52.046;6.314;2023-04-28T07:42:14;100987.34;;;10.42;100.00
10852;BME280;5479;52.046;6.314;2023-04-28T07:44:44;100985.63;;;10.41;100.00
10852;BME280;5479;52.046;6.314;2023-04-28T07:47:12;100981.19;;;10.42;100.00
10852;BME280;5479;52.046;6.314;2023-04-28T07:49:40;100973.84;;;10.47;100.00
10852;BME280;5479;52.046;6.314;2023-04-28T07:52:08;100967.44;;;10.66;100.00
10852;BME280;5479;52.046;6.314;2023-04-28T07:54:36;100965.47;;;10.54;100.00
10852;BME280;5479;52.046;6.314;2023-04-28T07:57:04;100973.22;;;10.73;100.00
10852;BME280;5479;52.046;6.314;2023-04-28T07:59:32;100965.28;;;10.88;100.00
10852;BME280;5479;52.046;6.314;2023-04-28T08:02:03;100971.00;;;10.97;100.00
10852;BME280;5479;52.046;6.314;2023-04-28T08:04:31;100969.34;;;11.10;100.00
10852;BME280;5479;52.046;6.314;2023-04-28T08:07:00;100963.25;;;11.08;100.00
10852;BME280;5479;52.046;6.314;2023-04-28T08:09:28;100958.22;;;11.03;100.00
10852;BME280;5479;52.046;6.314;2023-04-28T08:12:14;100962.25;;;10.95;100.00
10852;BME280;5479;52.046;6.314;2023-04-28T08:14:42;100958.25;;;10.87;100.00
10852;BME280;5479;52.046;6.314;2023-04-28T08:17:11;100962.13;;;11.12;100.00
10852;BME280;5479;52.046;6.314;2023-04-28T08:19:39;100962.31;;;11.09;100.00
10852;BME280;5479;52.046;6.314;2023-04-28T08:22:07;100963.53;;;11.03;100.00
10852;BME280;5479;52.046;6.314;2023-04-28T08:24:35;100959.97;;;10.88;100.00
10852;BME280;5479;52.046;6.314;2023-04-28T08:27:04;100967.81;;;10.90;100.00
10852;BME280;5479;52.046;6.314;2023-04-28T08:29:55;100959.06;;;11.04;100.00
10852;BME280;5479;52.046;6.314;2023-04-28T08:32:24;100953.25;;;11.13;100.00
10852;BME280;5479;52.046;6.314;2023-04-28T08:34:52;100960.75;;;11.20;100.00
10852;BME280;5479;52.046;6.314;2023-04-28T08:37:20;100957.22;;;11.20;100.00
10852;BME280;5479;52.046;6.314;2023-04-28T08:39:48;100963.63;;;11.31;100.00
10852;BME280;5479;52.046;6.314;2023-04-28T08:42:16;100962.19;;;11.26;100.00
10852;BME280;5479;52.046;6.314;2023-04-28T08:44:45;100958.09;;;11.34;100.00
10852;BME280;5479;52.046;6.314;2023-04-28T08:47:15;100959.72;;;11.37;100.00
10852;BME280;5479;52.046;6.314;2023-04-28T08:49:45;100960.50;;;11.39;100.00
10852;BME280;5479;52.046;6.314;2023-04-28T08:52:16;100952.75;;;11.50;100.00
10852;BME280;5479;52.046;6.314;2023-04-28T08:54:46;100942.44;;;11.88;100.00
10852;BME280;5479;52.046;6.314;2023-04-28T08:57:16;100941.78;;;12.13;100.00
10852;BME280;5479;52.046;6.314;2023-04-28T08:59:45;100937.13;;;12.16;100.00
10852;BME280;5479;52.046;6.314;2023-04-28T09:02:13;100946.06;;;12.42;100.00
10852;BME280;5479;52.046;6.314;2023-04-28T09:04:42;100939.44;;;12.76;100.00
10852;BME280;5479;52.046;6.314;2023-04-28T09:07:12;100942.44;;;13.10;100.00
10852;BME280;5479;52.046;6.314;2023-04-28T09:09:40;100934.78;;;13.81;100.00
10852;BME280;5479;52.046;6.314;2023-04-28T09:12:08;100933.31;;;13.40;100.00
10852;BME280;5479;52.046;6.314;2023-04-28T09:14:37;100931.53;;;13.40;100.00
10852;BME280;5479;52.046;6.314;2023-04-28T09:17:09;100927.81;;;13.43;100.00
10852;BME280;5479;52.046;6.314;2023-04-28T09:19:39;100934.59;;;13.59;100.00
10852;BME280;5479;52.046;6.314;2023-04-28T09:22:08;100932.44;;;13.64;100.00
10852;BME280;5479;52.046;6.314;2023-04-28T09:24:38;100931.47;;;14.03;100.00
10852;BME280;5479;52.046;6.314;2023-04-28T09:27:09;100927.72;;;14.78;100.00
10852;BME280;5479;52.046;6.314;2023-04-28T09:29:38;100926.25;;;15.09;100.00
10852;BME280;5479;52.046;6.314;2023-04-28T09:32:13;100916.94;;;15.15;100.00
10852;BME280;5479;52.046;6.314;2023-04-28T09:34:42;100933.72;;;14.69;100.00
10852;BME280;5479;52.046;6.314;2023-04-28T09:37:18;100928.97;;;14.38;100.00
10852;BME280;5479;52.046;6.314;2023-04-28T09:39:51;100931.91;;;14.46;100.00
10852;BME280;5479;52.046;6.314;2023-04-28T09:42:32;100930.91;;;14.60;100.00
10852;BME280;5479;52.046;6.314;2023-04-28T09:45:01;100925.66;;;14.34;100.00
10852;BME280;5479;52.046;6.314;2023-04-28T09:47:30;100923.22;;;14.31;100.00
10852;BME280;5479;52.046;6.314;2023-04-28T09:50:03;100920.47;;;14.20;100.00
10852;BME280;5479;52.046;6.314;2023-04-28T09:52:32;100926.16;;;13.78;100.00
10852;BME280;5479;52.046;6.314;2023-04-28T09:55:03;100916.50;;;13.77;100.00
10852;BME280;5479;52.046;6.314;2023-04-28T09:57:33;100916.81;;;13.85;100.00
10852;BME280;5479;52.046;6.314;2023-04-28T10:00:03;100918.28;;;13.89;100.00
10852;BME280;5479;52.046;6.314;2023-04-28T10:02:33;100911.28;;;13.63;100.00
10852;BME280;5479;52.046;6.314;2023-04-28T10:05:02;100908.81;;;13.85;100.00
10852;BME280;5479;52.046;6.314;2023-04-28T10:07:34;100903.41;;;13.49;100.00
10852;BME280;5479;52.046;6.314;2023-04-28T10:10:04;100907.34;;;13.30;100.00
10852;BME280;5479;52.046;6.314;2023-04-28T10:12:33;100903.53;;;13.47;100.00
10852;BME280;5479;52.046;6.314;2023-04-28T10:15:05;100900.75;;;13.74;100.00
10852;BME280;5479;52.046;6.314;2023-04-28T10:17:37;100901.16;;;13.68;100.00
10852;BME280;5479;52.046;6.314;2023-04-28T10:20:07;100894.03;;;13.68;100.00
10852;BME280;5479;52.046;6.314;2023-04-28T10:22:53;100903.13;;;14.02;100.00
10852;BME280;5479;52.046;6.314;2023-04-28T10:25:27;100901.06;;;14.18;100.00
10852;BME280;5479;52.046;6.314;2023-04-28T10:27:57;100904.19;;;14.12;100.00
10852;BME280;5479;52.046;6.314;2023-04-28T10:30:27;100901.97;;;14.06;100.00
10852;BME280;5479;52.046;6.314;2023-04-28T10:33:23;100901.25;;;14.40;100.00
10852;BME280;5479;52.046;6.314;2023-04-28T10:35:52;100901.03;;;14.31;100.00
10852;BME280;5479;52.046;6.314;2023-04-28T10:38:20;100901.38;;;14.39;100.00
10852;BME280;5479;52.046;6.314;2023-04-28T10:40:50;100894.72;;;14.08;100.00
10852;BME280;5479;52.046;6.314;2023-04-28T10:43:33;100891.97;;;13.97;100.00
10852;BME280;5479;52.046;6.314;2023-04-28T10:46:05;100893.69;;;13.98;100.00
10852;BME280;5479;52.046;6.314;2023-04-28T10:49:03;100894.44;;;14.24;100.00
10852;BME280;5479;52.046;6.314;2023-04-28T10:51:34;100897.28;;;13.97;100.00
10852;BME280;5479;52.046;6.314;2023-04-28T10:54:16;100892.50;;;14.38;100.00
10852;BME280;5479;52.046;6.314;2023-04-28T10:57:20;100883.50;;;14.76;100.00
10852;BME280;5479;52.046;6.314;2023-04-28T10:59:49;100892.72;;;14.83;100.00
10852;BME280;5479;52.046;6.314;2023-04-28T11:02:39;100891.56;;;14.63;100.00
10852;BME280;5479;52.046;6.314;2023-04-28T11:05:13;100894.31;;;14.62;100.00
10852;BME280;5479;52.046;6.314;2023-04-28T11:11:16;100883.28;;;14.19;100.00
10852;BME280;5479;52.046;6.314;2023-04-28T11:13:46;100883.41;;;14.17;100.00
10852;BME280;5479;52.046;6.314;2023-04-28T11:16:16;100876.63;;;14.37;100.00
10852;BME280;5479;52.046;6.314;2023-04-28T11:18:55;100876.41;;;14.64;100.00
10852;BME280;5479;52.046;6.314;2023-04-28T11:21:25;100879.47;;;14.70;100.00
10852;BME280;5479;52.046;6.314;2023-04-28T11:23:54;100881.19;;;14.82;100.00
10852;BME280;5479;52.046;6.314;2023-04-28T11:26:26;100882.06;;;14.83;100.00
10852;BME280;5479;52.046;6.314;2023-04-28T11:28:58;100886.59;;;14.70;100.00
10852;BME280;5479;52.046;6.314;2023-04-28T11:31:31;100879.72;;;14.43;100.00
10852;BME280;5479;52.046;6.314;2023-04-28T11:34:03;100880.13;;;14.61;100.00
10852;BME280;5479;52.046;6.314;2023-04-28T11:36:34;100881.19;;;14.82;100.00
10852;BME280;5479;52.046;6.314;2023-04-28T11:39:03;100879.34;;;15.06;100.00
10852;BME280;5479;52.046;6.314;2023-04-28T11:41:34;100881.44;;;15.14;100.00
10852;BME280;5479;52.046;6.314;2023-04-28T11:44:11;100886.50;;;15.17;100.00
10852;BME280;5479;52.046;6.314;2023-04-28T11:46:46;100882.69;;;15.43;100.00
10852;BME280;5479;52.046;6.314;2023-04-28T11:49:17;100882.00;;;15.52;100.00
10852;BME280;5479;52.046;6.314;2023-04-28T11:51:46;100881.69;;;15.33;100.00
10852;BME280;5479;52.046;6.314;2023-04-28T11:54:19;100887.25;;;15.30;100.00
10852;BME280;5479;52.046;6.314;2023-04-28T11:56:49;100888.38;;;14.93;100.00
10852;BME280;5479;52.046;6.314;2023-04-28T11:59:22;100887.06;;;14.98;100.00
10852;BME280;5479;52.046;6.314;2023-04-28T12:01:52;100881.66;;;15.11;100.00
10852;BME280;5479;52.046;6.314;2023-04-28T12:04:27;100881.19;;;15.06;100.00
10852;BME280;5479;52.046;6.314;2023-04-28T12:07:03;100876.72;;;15.29;100.00
10852;BME280;5479;52.046;6.314;2023-04-28T12:09:33;100881.72;;;15.44;100.00
10852;BME280;5479;52.046;6.314;2023-04-28T12:12:02;100878.28;;;15.31;100.00
10852;BME280;5479;52.046;6.314;2023-04-28T12:17:23;100884.09;;;15.14;100.00
10852;BME280;5479;52.046;6.314;2023-04-28T12:19:52;100885.53;;;15.07;100.00
10852;BME280;5479;52.046;6.314;2023-04-28T12:22:20;100887.47;;;15.05;100.00
10852;BME280;5479;52.046;6.314;2023-04-28T12:25:02;100886.78;;;15.14;100.00
10852;BME280;5479;52.046;6.314;2023-04-28T12:27:30;100882.66;;;15.21;100.00
10852;BME280;5479;52.046;6.314;2023-04-28T12:30:00;100883.00;;;15.05;100.00
10852;BME280;5479;52.046;6.314;2023-04-28T12:32:37;100883.84;;;15.06;100.00
10852;BME280;5479;52.046;6.314;2023-04-28T12:35:07;100883.13;;;15.15;100.00
10852;BME280;5479;52.046;6.314;2023-04-28T12:37:35;100873.22;;;15.39;100.00
10852;BME280;5479;52.046;6.314;2023-04-28T12:40:06;100873.28;;;15.73;100.00
10852;BME280;5479;52.046;6.314;2023-04-28T12:42:34;100878.59;;;15.95;100.00
10852;BME280;5479;52.046;6.314;2023-04-28T12:45:05;100877.38;;;16.10;100.00
10852;BME280;5479;52.046;6.314;2023-04-28T12:47:34;100870.28;;;16.31;100.00
10852;BME280;5479;52.046;6.314;2023-04-28T12:50:09;100872.19;;;16.40;100.00
10852;BME280;5479;52.046;6.314;2023-04-28T12:52:51;100872.03;;;16.10;100.00
10852;BME280;5479;52.046;6.314;2023-04-28T12:55:19;100870.81;;;16.03;100.00
10852;BME280;5479;52.046;6.314;2023-04-28T12:57:47;100875.44;;;15.90;100.00
10852;BME280;5479;52.046;6.314;2023-04-28T13:00:17;100866.22;;;15.94;100.00
10852;BME280;5479;52.046;6.314;2023-04-28T13:02:48;100877.84;;;16.04;100.00
10852;BME280;5479;52.046;6.314;2023-04-28T13:05:16;100877.88;;;15.93;100.00
10852;BME280;5479;52.046;6.314;2023-04-28T13:07:45;100877.38;;;15.65;100.00
10852;BME280;5479;52.046;6.314;2023-04-28T13:10:13;100879.47;;;15.51;100.00
10852;BME280;5479;52.046;6.314;2023-04-28T13:12:41;100882.41;;;15.13;100.00
10852;BME280;5479;52.046;6.314;2023-04-28T13:15:10;100883.31;;;15.01;100.00
10852;BME280;5479;52.046;6.314;2023-04-28T13:17:39;100876.53;;;14.97;100.00